Mackenzie Airport
CYZY : now visible

Airfield :











YOU CAN JOIN US ON...

 
LOGIN :

Register | Disclaimer

   EN    FR    IT 

 









Legend :    VFR   Marginal VFR   IFR   Intensive IFR   Very Intensive IFR
Visi :
Ceiling :
>= 8 km
>= 3000ft
5 to 8 km
1000 to 3000 ft
1500m to 5 km
500 to 1000 ft
800 to 1500m
200 to 500 ft
< 800m
< 200 ft
Symbols :   Thunderstorms  Fog  Heavy snow  Heavy precipitations  Wind > 20 kt







- Airport Elevation : 2264 ft
- IATA code : YZY


CYZY - Mackenzie

CURRENT METAR :
  • 211600Z AUTO 14010G16KT 9SM BKN120 OVC140 12/07 A2984 RMK SLP117 DENSITY ALT 2500FT

EXPIRED METARs :
  • 211500Z AUTO 15012G18KT 9SM SCT100 BKN120 11/07 A2984 RMK SLP118 DENSITY ALT 2400FT

TAF TAF CYZY
Valid from the 21 at 15:00 until the 22 at 03:00 UTC


211438Z 2115/2203 17008KT P6SM BKN120
TEMPO 2115/2117 BKN080
FM211700 17010KT P6SM SCT050 OVC110
TEMPO 2117/2121 P6SM -RA BKN050 OVC100
FM212100 17010KT P6SM BKN050 OVC080
TEMPO 2121/2203 P6SM -RA OVC030 RMK FCST BASED ON AUTO OBS. NXT FCST BY 211900Z
No reported NOTAMs for that airfield.



MET'MAP, your aeronautical weather chart ! - Copyright ORBIFLY December 2007 - Disclaimer

ORBIFLY MET'MAP TEAM :

Programming & Development : Alexandra Zaïnal
Concept & Development : Baudouin d'Aumeries
Co-Development & Prog : Marc-Olivier Méhu
Technical & hardware support : Manuel Goepfert

Contact : metmap@orbifly.com




SOURCES & CREDITS :

   NOAA       Earth
Advisory